createdAt,value
2023-04-18T05:29:00.958Z,100.00
2023-04-18T05:32:14.800Z,100.00
2023-04-18T05:35:26.737Z,100.00
2023-04-18T05:38:38.792Z,100.00
2023-04-18T05:47:51.505Z,100.00
2023-04-18T05:51:03.730Z,100.00
2023-04-18T05:54:16.346Z,100.00
2023-04-18T05:57:28.770Z,100.00
2023-04-18T06:00:40.977Z,100.00
2023-04-18T06:03:54.067Z,100.00
2023-04-18T06:07:06.838Z,100.00
2023-04-18T06:10:19.580Z,100.00
2023-04-18T06:13:32.295Z,100.00
2023-04-18T06:19:44.980Z,100.00
2023-04-18T06:22:58.017Z,100.00
2023-04-18T06:29:11.276Z,100.00
2023-04-18T06:32:23.657Z,100.00
2023-04-18T06:35:36.918Z,100.00
2023-04-18T06:38:49.035Z,100.00
2023-04-18T06:51:01.354Z,100.00
2023-04-18T06:54:13.685Z,100.00
2023-04-18T06:57:28.292Z,100.00
2023-04-18T07:00:40.455Z,100.00
2023-04-18T07:03:52.661Z,100.00
2023-04-18T07:07:05.543Z,100.00
2023-04-18T07:10:18.596Z,100.00
2023-04-18T07:13:30.791Z,100.00
2023-04-18T07:16:42.972Z,100.00
2023-04-18T07:19:55.213Z,100.00
2023-04-18T07:23:07.242Z,100.00
2023-04-18T07:26:19.807Z,100.00
2023-04-18T07:29:31.882Z,100.00
2023-04-18T07:32:44.039Z,100.00
2023-04-18T07:35:56.385Z,100.00
2023-04-18T07:39:08.885Z,100.00
2023-04-18T07:42:21.007Z,100.00
2023-04-18T07:45:33.695Z,100.00
2023-04-18T07:48:46.558Z,100.00
2023-04-18T07:51:58.667Z,100.00
2023-04-18T07:55:12.706Z,100.00
2023-04-18T07:58:25.419Z,100.00
2023-04-18T08:01:37.747Z,100.00
2023-04-18T08:04:52.383Z,96.77
2023-04-18T08:08:05.035Z,93.28
2023-04-18T08:11:17.136Z,92.04
2023-04-18T08:14:29.471Z,89.34
2023-04-18T08:17:44.031Z,87.04
2023-04-18T08:20:57.939Z,85.22
2023-04-18T08:24:16.790Z,86.38
2023-04-18T08:27:28.844Z,84.84
2023-04-18T08:30:41.305Z,86.60
2023-04-18T08:33:53.632Z,84.05
2023-04-18T08:37:07.564Z,84.46
2023-04-18T08:40:20.648Z,83.11
2023-04-18T08:43:33.001Z,80.58
2023-04-18T08:46:45.223Z,77.88
2023-04-18T08:49:57.818Z,78.12
2023-04-18T08:53:10.331Z,76.08
2023-04-18T08:56:25.018Z,76.89
2023-04-18T08:59:37.308Z,73.23
2023-04-18T09:02:49.912Z,73.77
2023-04-18T09:06:19.506Z,71.75
2023-04-18T09:09:31.810Z,71.79
2023-04-18T09:12:50.925Z,74.07
2023-04-18T09:16:03.665Z,76.76
2023-04-18T09:19:21.965Z,75.70
2023-04-18T09:22:50.746Z,74.63
2023-04-18T09:26:03.149Z,73.99
2023-04-18T09:29:17.567Z,71.47
2023-04-18T09:32:34.930Z,73.53
2023-04-18T09:35:47.756Z,69.91
2023-04-18T09:39:01.234Z,66.22
2023-04-18T09:42:18.050Z,67.84
2023-04-18T09:45:30.121Z,66.77
2023-04-18T09:48:42.869Z,65.40
2023-04-18T09:51:57.916Z,66.68
2023-04-18T09:55:13.253Z,65.50
2023-04-18T09:58:28.909Z,61.77
2023-04-18T10:01:44.524Z,60.08
2023-04-18T10:04:58.298Z,56.79
2023-04-18T10:08:13.165Z,55.87
2023-04-18T10:11:25.760Z,55.43
2023-04-18T10:14:40.751Z,55.63
2023-04-18T10:18:04.237Z,59.71
2023-04-18T10:21:12.357Z,59.20
2023-04-18T10:24:54.673Z,56.48
2023-04-18T10:28:09.060Z,58.14
2023-04-18T10:31:22.492Z,57.08
2023-04-18T10:34:35.001Z,59.61
2023-04-18T10:38:02.663Z,58.10
2023-04-18T10:41:28.488Z,58.48
2023-04-18T10:44:40.691Z,57.65
2023-04-18T10:47:53.378Z,59.38
2023-04-18T10:51:23.780Z,60.57
2023-04-18T10:54:41.879Z,56.02
2023-04-18T10:57:56.864Z,58.17
2023-04-18T11:01:12.361Z,55.02
2023-04-18T11:04:24.864Z,54.91
2023-04-18T11:07:46.389Z,58.82
2023-04-18T11:11:09.132Z,55.95
2023-04-18T11:14:21.654Z,56.53
2023-04-18T11:17:38.538Z,54.50
2023-04-18T11:20:55.552Z,55.38
2023-04-18T11:24:08.775Z,56.55
2023-04-18T11:27:21.915Z,55.75
2023-04-18T11:30:37.113Z,54.76
2023-04-18T11:33:51.947Z,53.89
2023-04-18T11:37:04.481Z,53.58
2023-04-18T11:40:19.665Z,52.83
2023-04-18T11:43:32.516Z,55.26
2023-04-18T11:46:50.414Z,58.42
2023-04-18T11:50:07.936Z,54.03
2023-04-18T11:53:22.387Z,51.67
2023-04-18T11:56:36.692Z,53.54
2023-04-18T11:59:56.427Z,52.49
2023-04-18T12:03:13.412Z,51.99
2023-04-18T12:06:24.679Z,51.85
2023-04-18T12:09:36.960Z,51.92
2023-04-18T12:12:53.556Z,51.92
2023-04-18T12:16:08.110Z,53.71
2023-04-18T12:19:20.711Z,49.55
2023-04-18T12:22:55.319Z,52.38
2023-04-18T12:26:14.619Z,52.64
2023-04-18T12:29:27.090Z,49.86
2023-04-18T12:32:39.511Z,53.39
2023-04-18T12:35:52.544Z,57.27
2023-04-18T12:39:06.270Z,54.73
2023-04-18T12:42:18.368Z,55.95
2023-04-18T12:45:31.306Z,56.00
2023-04-18T12:48:43.409Z,56.75
2023-04-18T12:51:55.649Z,56.86
2023-04-18T12:55:08.014Z,57.08
2023-04-18T12:58:21.007Z,56.30
2023-04-18T13:01:34.226Z,52.37
2023-04-18T13:04:46.915Z,55.40
2023-04-18T13:08:15.236Z,56.33
2023-04-18T13:11:14.230Z,55.22
2023-04-18T13:14:26.798Z,58.18
2023-04-18T13:17:39.675Z,55.23
2023-04-18T13:20:52.865Z,52.54
2023-04-18T13:24:05.664Z,55.90
2023-04-18T13:27:17.872Z,49.90
2023-04-18T13:30:30.522Z,52.37
2023-04-18T13:33:43.621Z,54.42
2023-04-18T13:36:56.739Z,53.32
2023-04-18T13:40:12.569Z,52.76
2023-04-18T13:43:25.076Z,54.28
2023-04-18T13:46:37.332Z,54.01
2023-04-18T13:49:49.473Z,58.66
2023-04-18T13:53:01.564Z,55.76
2023-04-18T13:56:14.650Z,55.03
2023-04-18T13:59:27.319Z,55.16
2023-04-18T14:02:39.601Z,56.28
2023-04-18T14:05:52.065Z,59.40
2023-04-18T14:09:04.656Z,56.88
2023-04-18T14:12:18.027Z,59.73
2023-04-18T14:15:32.469Z,55.90
2023-04-18T14:18:46.834Z,54.21
2023-04-18T14:21:59.092Z,54.30
2023-04-18T14:25:14.620Z,56.69
2023-04-18T14:28:26.830Z,54.46
2023-04-18T14:31:39.268Z,54.03
2023-04-18T14:34:51.435Z,52.14
2023-04-18T14:38:03.568Z,54.65
2023-04-18T14:41:16.243Z,56.81
2023-04-18T14:44:28.769Z,55.87
2023-04-18T14:47:42.186Z,53.84
2023-04-18T14:51:02.936Z,54.53
2023-04-18T14:54:15.182Z,51.79
2023-04-18T14:57:28.551Z,54.73
2023-04-18T15:00:41.000Z,56.75
2023-04-18T15:03:56.016Z,55.51
2023-04-18T15:07:08.279Z,54.85
2023-04-18T15:10:22.626Z,54.09
2023-04-18T15:13:35.122Z,55.57
2023-04-18T15:16:47.433Z,56.60
2023-04-18T15:20:00.033Z,57.06
2023-04-18T15:23:13.914Z,55.04
2023-04-18T15:26:26.308Z,56.61
2023-04-18T15:29:39.209Z,55.31
2023-04-18T15:32:52.477Z,57.12
2023-04-18T15:36:04.614Z,58.36
2023-04-18T15:39:18.203Z,60.06
2023-04-18T15:42:30.700Z,57.39
2023-04-18T15:45:44.760Z,56.66
2023-04-18T15:48:57.530Z,56.99
2023-04-18T15:52:10.795Z,58.52
2023-04-18T15:55:23.323Z,60.11
2023-04-18T15:58:35.491Z,62.95
2023-04-18T16:01:47.805Z,63.06
2023-04-18T16:05:00.164Z,65.41
2023-04-18T16:08:12.701Z,63.80
2023-04-18T16:11:26.427Z,65.87
2023-04-18T16:14:38.856Z,67.84
2023-04-18T16:17:51.079Z,64.56
2023-04-18T16:21:03.536Z,66.13
2023-04-18T16:24:16.545Z,64.68
2023-04-18T16:27:29.167Z,66.56
2023-04-18T16:30:43.465Z,67.54
2023-04-18T16:33:56.660Z,68.52
2023-04-18T16:37:08.980Z,65.74
2023-04-18T16:40:21.728Z,65.76
2023-04-18T16:43:36.603Z,66.03
2023-04-18T16:46:48.849Z,68.25
2023-04-18T16:50:01.470Z,69.17
2023-04-18T16:53:13.878Z,67.70
2023-04-18T16:56:26.424Z,69.75
2023-04-18T16:59:38.954Z,70.66
2023-04-18T17:02:51.862Z,69.81
2023-04-18T17:06:04.519Z,71.60
2023-04-18T17:09:27.006Z,72.03
2023-04-18T17:12:39.319Z,73.36
2023-04-18T17:15:51.746Z,72.45
2023-04-18T17:19:03.890Z,72.39
2023-04-18T17:22:16.130Z,73.00
2023-04-18T17:25:28.543Z,74.27
2023-04-18T17:28:41.154Z,76.05
2023-04-18T17:31:53.449Z,74.41
2023-04-18T17:35:06.811Z,75.13
2023-04-18T17:38:19.073Z,75.43
2023-04-18T17:41:31.331Z,76.72
2023-04-18T17:44:44.135Z,78.00
2023-04-18T17:47:57.943Z,75.93
2023-04-18T17:51:10.390Z,75.58
2023-04-18T17:54:22.905Z,78.48
2023-04-18T17:57:35.832Z,77.56
2023-04-18T18:00:48.651Z,76.57
2023-04-18T18:04:01.390Z,78.47
2023-04-18T18:07:14.133Z,78.63
2023-04-18T18:10:27.361Z,80.57
2023-04-18T18:13:39.860Z,79.11
2023-04-18T18:16:52.146Z,79.83
2023-04-18T18:20:04.657Z,79.82
2023-04-18T18:23:17.117Z,77.94
2023-04-18T18:26:31.164Z,79.86
2023-04-18T18:29:45.504Z,81.32
2023-04-18T18:32:57.817Z,82.92
2023-04-18T18:36:11.017Z,84.31
2023-04-18T18:39:23.405Z,85.54
2023-04-18T18:42:36.950Z,85.56
2023-04-18T18:45:50.160Z,86.73
2023-04-18T18:49:02.441Z,88.39
2023-04-18T18:52:14.930Z,88.07
2023-04-18T18:55:27.533Z,87.57
2023-04-18T18:58:40.762Z,88.71
2023-04-18T19:01:53.322Z,90.08
2023-04-18T19:05:06.016Z,90.27
2023-04-18T19:08:18.915Z,90.63
2023-04-18T19:11:31.208Z,90.48
2023-04-18T19:14:43.648Z,90.90
2023-04-18T19:17:55.936Z,91.31
2023-04-18T19:21:08.836Z,90.83
2023-04-18T19:24:21.708Z,90.98
2023-04-18T19:27:34.302Z,91.20
2023-04-18T19:30:47.149Z,91.40
2023-04-18T19:33:59.775Z,92.38
2023-04-18T19:37:12.150Z,91.53
2023-04-18T19:40:26.831Z,91.30
2023-04-18T19:43:40.632Z,91.70
2023-04-18T19:46:53.302Z,91.81
2023-04-18T19:50:06.108Z,91.49
2023-04-18T19:53:20.731Z,91.22
2023-04-18T19:56:33.738Z,90.09
2023-04-18T19:59:46.023Z,89.81
2023-04-18T20:02:59.109Z,88.88
2023-04-18T20:06:15.326Z,88.27
2023-04-18T20:09:28.052Z,89.36
2023-04-18T20:12:40.639Z,88.65
2023-04-18T20:15:53.563Z,88.76
2023-04-18T20:19:06.029Z,88.76
2023-04-18T20:22:18.865Z,89.09
2023-04-18T20:25:31.446Z,89.16
2023-04-18T20:28:43.658Z,88.45
2023-04-18T20:31:56.187Z,86.93
2023-04-18T20:35:08.719Z,86.06
2023-04-18T20:38:25.412Z,84.60
2023-04-18T20:41:37.318Z,86.01
2023-04-18T20:44:50.203Z,87.95
2023-04-18T20:48:03.806Z,88.89
2023-04-18T20:51:16.081Z,88.17
2023-04-18T20:54:28.741Z,84.36
2023-04-18T20:57:41.596Z,87.67
2023-04-18T21:00:53.684Z,86.38
2023-04-18T21:04:06.243Z,85.46
2023-04-18T21:07:19.156Z,85.58
2023-04-18T21:10:31.468Z,87.83
2023-04-18T21:13:43.588Z,86.75
2023-04-18T21:16:55.751Z,89.38
2023-04-18T21:20:08.269Z,91.73
2023-04-18T21:23:20.501Z,93.40
2023-04-18T21:26:32.527Z,94.87
2023-04-18T21:29:45.038Z,96.16
2023-04-18T21:32:57.324Z,97.19
2023-04-18T21:36:10.985Z,97.82
2023-04-18T21:39:23.345Z,97.88
2023-04-18T21:42:35.963Z,99.02
2023-04-18T21:45:48.443Z,99.67
2023-04-18T21:49:00.685Z,100.00
2023-04-18T21:52:13.326Z,100.00
2023-04-18T21:55:25.757Z,100.00
2023-04-18T21:58:38.537Z,100.00
2023-04-18T22:01:50.853Z,100.00
2023-04-18T22:05:03.059Z,100.00
2023-04-18T22:08:16.450Z,100.00
2023-04-18T22:11:28.754Z,100.00
2023-04-18T22:14:41.097Z,100.00
2023-04-18T22:17:54.608Z,100.00
2023-04-18T22:21:09.516Z,100.00
2023-04-18T22:24:22.748Z,100.00
2023-04-18T22:27:35.068Z,100.00
2023-04-18T22:30:47.556Z,100.00
2023-04-18T22:33:59.636Z,100.00
2023-04-18T22:37:12.319Z,100.00
2023-04-18T22:40:25.121Z,100.00
2023-04-18T22:43:37.591Z,100.00
2023-04-18T22:46:50.961Z,100.00
2023-04-18T22:50:02.962Z,100.00
2023-04-18T22:53:16.108Z,100.00
2023-04-18T22:56:28.735Z,100.00
2023-04-18T22:59:41.123Z,100.00
2023-04-18T23:02:53.754Z,100.00
2023-04-18T23:06:06.675Z,100.00
2023-04-18T23:09:19.948Z,100.00
2023-04-18T23:12:32.558Z,100.00
2023-04-18T23:15:44.593Z,100.00
2023-04-18T23:18:56.675Z,100.00
2023-04-18T23:22:08.726Z,100.00
2023-04-18T23:25:21.442Z,100.00
2023-04-18T23:28:34.051Z,100.00
2023-04-18T23:31:46.199Z,100.00
2023-04-18T23:34:58.623Z,100.00
2023-04-18T23:38:10.609Z,100.00
2023-04-18T23:41:22.688Z,100.00
2023-04-18T23:44:34.682Z,100.00
2023-04-18T23:47:46.927Z,100.00
2023-04-18T23:51:00.705Z,100.00
2023-04-18T23:54:13.085Z,100.00
2023-04-18T23:57:25.409Z,100.00
